• Join FlightAware (Why Join?)
  • Login
  • US Flag 
10:07AM EDT


 

Airport Tracker/Info


-or-


 

Live Flight TrackerFlight Track Log ✈ EJA922 ✈ 09-Oct-2013 ✈ KRNO - KSJC

Flight Track Log - Related Links

Times and Time Zones

All times are in EDT time to prevent confusion due to time zone crossing. See the EJA922 flight status page for this flight to view local times or setup timezone preferences in your user account.

Time Position Orientation Groundspeed Altitude Reporting Facility
EDT Latitude Longitude Course Direction KTS MPH feet Rate Location/Type
07:33PM 39.5167 -119.7667 349° North 191 220 6,000  Level Northern Cal TRACON
07:34PM 39.5833 -119.7833 349° North 229 264 10,900 3,120 Climbing Northern Cal TRACON
07:36PM 39.4683 -119.6617 141° Southeast 353 406 16,000 1,860 Climbing Oakland Center
07:37PM 39.3619 -119.7028 197° South 406 467 17,000 480 Climbing Oakland Center
07:38PM 39.2528 -119.7917 212° Southwest 459 528 17,000  Level Oakland Center
07:39PM 39.1467 -119.8817 213° Southwest 458 527 17,000  Level Oakland Center
07:40PM 39.0417 -119.9669 212° Southwest 452 520 17,000  Level Oakland Center
07:41PM 38.9294 -120.0611 213° Southwest 444 511 17,000 -60 Level Oakland Center
07:42PM 38.8244 -120.1492 213° Southwest 447 514 16,900 -60 Descending Oakland Center
07:43PM 38.7164 -120.2375 213° Southwest 455 524 16,900  Level Oakland Center
07:44PM 38.6100 -120.3253 213° Southwest 455 524 16,900 -300 Level Oakland Center
07:45PM 38.5003 -120.4164 213° Southwest 466 536 16,300 -540 Descending Oakland Center
07:46PM 38.3928 -120.5022 212° Southwest 459 528 15,900 -600 Descending Oakland Center
07:47PM 38.2903 -120.5847 212° Southwest 443 510 15,200 -1,020 Descending Oakland Center
07:48PM 38.1744 -120.6667 209° Southwest 432 497 13,900 -1,380 Descending Oakland Center
07:49PM 38.0722 -120.7200 202° Southwest 435 501 12,400 -1,440 Descending Oakland Center
07:50PM 37.9628 -120.7783 203° Southwest 430 495 11,000 -720 Descending Oakland Center
07:51PM 37.8333 -120.8478 203° Southwest 422 486 11,000  Level Oakland Center
07:52PM 37.7667 -120.8833 203° Southwest 436 502 11,000 -360 Level Northern Cal TRACON
07:53PM 37.6500 -120.9500 204° Southwest 433 498 10,400 -480 Descending Northern Cal TRACON
07:54PM 37.5667 -121.0500 224° Southwest 434 499 10,000 -240 Descending Northern Cal TRACON
07:55PM 37.5000 -121.1500 230° Southwest 399 459 10,000 -600 Level Northern Cal TRACON
07:56PM 37.4333 -121.2667 234° Southwest 328 377 8,800 -1,020 Descending Northern Cal TRACON
07:57PM 37.3833 -121.3500 233° Southwest 291 335 7,900 -660 Descending Northern Cal TRACON
07:58PM 37.3333 -121.4167 227° Southwest 286 329 7,500 -600 Descending Northern Cal TRACON
07:59PM 37.3000 -121.4833 238° Southwest 289 333 6,800 -840 Descending Northern Cal TRACON
07:59PM 37.2722 -121.5247 230° Southwest 287 330 6,300 -720 Descending Oakland Center
08:00PM 37.2367 -121.6114 243° Southwest 278 320 5,700 -360 Descending Oakland Center
08:01PM 37.2069 -121.7006 247° West 279 321 5,600 -840 Descending Oakland Center
08:02PM 37.2369 -121.7958 292° West 278 320 4,100 -1,380 Descending Oakland Center
08:03PM 37.2803 -121.8439 319° Northwest 237 273 2,800 -1,320 Descending Oakland Center
08:04PM 37.3203 -121.8839 322° Northwest 204 235 1,400 -1,260 Descending Oakland Center
08:06PM 37.3458 -121.9128 318° Northwest 155 178 300 -1,140 Descending Oakland Center
08:07PM 37.3500 -121.9167 North  Level FlightAware Approximate
08:14PM 37.3627 -121.9291 North  Level Estimated
08:15PM 37.3627 -121.9291 North  Level Estimated